sensor_id;sensor_type;location;lat;lon;timestamp;P1;durP1;ratioP1;P2;durP2;ratioP2
39788;SDS011;25478;42.626;23.320;2023-01-29T00:01:06;19.70;;;9.90;;
39788;SDS011;25478;42.626;23.320;2023-01-29T00:03:34;16.03;;;8.40;;
39788;SDS011;25478;42.626;23.320;2023-01-29T00:06:02;20.00;;;8.30;;
39788;SDS011;25478;42.626;23.320;2023-01-29T00:08:32;14.97;;;8.20;;
39788;SDS011;25478;42.626;23.320;2023-01-29T00:11:02;15.43;;;7.87;;
39788;SDS011;25478;42.626;23.320;2023-01-29T00:13:31;14.23;;;7.37;;
39788;SDS011;25478;42.626;23.320;2023-01-29T00:15:58;17.83;;;8.77;;
39788;SDS011;25478;42.626;23.320;2023-01-29T00:18:25;15.73;;;8.17;;
39788;SDS011;25478;42.626;23.320;2023-01-29T00:20:51;19.03;;;9.07;;
39788;SDS011;25478;42.626;23.320;2023-01-29T00:23:17;16.50;;;8.17;;
39788;SDS011;25478;42.626;23.320;2023-01-29T00:25:43;18.93;;;8.87;;
39788;SDS011;25478;42.626;23.320;2023-01-29T00:28:08;17.63;;;9.40;;
39788;SDS011;25478;42.626;23.320;2023-01-29T00:30:35;17.70;;;8.50;;
39788;SDS011;25478;42.626;23.320;2023-01-29T00:33:01;18.23;;;9.43;;
39788;SDS011;25478;42.626;23.320;2023-01-29T00:35:27;18.33;;;8.83;;
39788;SDS011;25478;42.626;23.320;2023-01-29T00:37:54;16.47;;;8.90;;
39788;SDS011;25478;42.626;23.320;2023-01-29T00:40:20;16.30;;;8.47;;
39788;SDS011;25478;42.626;23.320;2023-01-29T00:42:47;17.37;;;9.60;;
39788;SDS011;25478;42.626;23.320;2023-01-29T00:45:31;16.10;;;8.55;;
39788;SDS011;25478;42.626;23.320;2023-01-29T00:47:56;15.80;;;8.50;;
39788;SDS011;25478;42.626;23.320;2023-01-29T00:50:22;16.20;;;8.57;;
39788;SDS011;25478;42.626;23.320;2023-01-29T00:52:47;15.77;;;7.83;;
39788;SDS011;25478;42.626;23.320;2023-01-29T00:55:15;19.57;;;9.23;;
39788;SDS011;25478;42.626;23.320;2023-01-29T00:57:41;16.57;;;8.43;;
39788;SDS011;25478;42.626;23.320;2023-01-29T01:00:08;18.97;;;9.20;;
39788;SDS011;25478;42.626;23.320;2023-01-29T01:02:36;18.40;;;8.47;;
39788;SDS011;25478;42.626;23.320;2023-01-29T01:05:21;20.02;;;9.02;;
39788;SDS011;25478;42.626;23.320;2023-01-29T01:07:47;18.00;;;8.83;;
39788;SDS011;25478;42.626;23.320;2023-01-29T01:10:17;16.30;;;7.77;;
39788;SDS011;25478;42.626;23.320;2023-01-29T01:12:45;17.20;;;8.03;;
39788;SDS011;25478;42.626;23.320;2023-01-29T01:15:12;16.80;;;9.37;;
39788;SDS011;25478;42.626;23.320;2023-01-29T01:17:39;18.63;;;9.40;;
39788;SDS011;25478;42.626;23.320;2023-01-29T01:20:04;19.40;;;9.80;;
39788;SDS011;25478;42.626;23.320;2023-01-29T01:22:30;20.07;;;8.77;;
39788;SDS011;25478;42.626;23.320;2023-01-29T01:24:56;16.17;;;8.47;;
39788;SDS011;25478;42.626;23.320;2023-01-29T01:27:21;18.37;;;8.77;;
39788;SDS011;25478;42.626;23.320;2023-01-29T01:29:47;19.93;;;8.77;;
39788;SDS011;25478;42.626;23.320;2023-01-29T01:32:13;20.97;;;9.50;;
39788;SDS011;25478;42.626;23.320;2023-01-29T01:34:39;21.20;;;9.93;;
39788;SDS011;25478;42.626;23.320;2023-01-29T01:37:05;19.17;;;9.83;;
39788;SDS011;25478;42.626;23.320;2023-01-29T01:39:31;21.43;;;9.50;;
39788;SDS011;25478;42.626;23.320;2023-01-29T01:41:56;17.77;;;8.53;;
39788;SDS011;25478;42.626;23.320;2023-01-29T01:47:17;22.63;;;9.33;;
39788;SDS011;25478;42.626;23.320;2023-01-29T01:49:48;19.80;;;9.80;;
39788;SDS011;25478;42.626;23.320;2023-01-29T01:52:13;18.20;;;8.77;;
39788;SDS011;25478;42.626;23.320;2023-01-29T01:54:40;17.57;;;8.93;;
39788;SDS011;25478;42.626;23.320;2023-01-29T01:57:13;20.07;;;9.23;;
39788;SDS011;25478;42.626;23.320;2023-01-29T01:59:47;19.87;;;8.53;;
39788;SDS011;25478;42.626;23.320;2023-01-29T02:02:17;18.73;;;8.47;;
39788;SDS011;25478;42.626;23.320;2023-01-29T02:05:01;15.77;;;8.20;;
39788;SDS011;25478;42.626;23.320;2023-01-29T02:07:46;14.90;;;7.63;;
39788;SDS011;25478;42.626;23.320;2023-01-29T02:10:38;16.23;;;8.10;;
39788;SDS011;25478;42.626;23.320;2023-01-29T02:13:06;14.02;;;7.15;;
39788;SDS011;25478;42.626;23.320;2023-01-29T02:15:33;14.90;;;8.03;;
39788;SDS011;25478;42.626;23.320;2023-01-29T02:18:00;16.93;;;8.30;;
39788;SDS011;25478;42.626;23.320;2023-01-29T02:20:27;16.03;;;8.03;;
39788;SDS011;25478;42.626;23.320;2023-01-29T02:25:46;15.23;;;8.65;;
39788;SDS011;25478;42.626;23.320;2023-01-29T02:36:45;14.87;;;7.83;;
39788;SDS011;25478;42.626;23.320;2023-01-29T02:39:14;16.57;;;8.63;;
39788;SDS011;25478;42.626;23.320;2023-01-29T02:47:34;20.60;;;9.83;;
39788;SDS011;25478;42.626;23.320;2023-01-29T02:53:26;15.73;;;8.47;;
39788;SDS011;25478;42.626;23.320;2023-01-29T02:58:46;16.00;;;8.47;;
39788;SDS011;25478;42.626;23.320;2023-01-29T03:01:38;19.50;;;9.00;;
39788;SDS011;25478;42.626;23.320;2023-01-29T03:04:15;18.23;;;9.03;;
39788;SDS011;25478;42.626;23.320;2023-01-29T03:06:46;15.43;;;8.83;;
39788;SDS011;25478;42.626;23.320;2023-01-29T03:09:40;15.90;;;7.70;;
39788;SDS011;25478;42.626;23.320;2023-01-29T03:12:19;13.67;;;7.23;;
39788;SDS011;25478;42.626;23.320;2023-01-29T03:15:00;14.47;;;7.00;;
39788;SDS011;25478;42.626;23.320;2023-01-29T03:20:22;10.52;;;6.30;;
39788;SDS011;25478;42.626;23.320;2023-01-29T03:22:55;10.03;;;6.07;;
39788;SDS011;25478;42.626;23.320;2023-01-29T03:25:25;7.93;;;4.17;;
39788;SDS011;25478;42.626;23.320;2023-01-29T03:28:12;7.40;;;4.67;;
39788;SDS011;25478;42.626;23.320;2023-01-29T03:31:02;9.77;;;4.83;;
39788;SDS011;25478;42.626;23.320;2023-01-29T03:34:13;9.20;;;5.20;;
39788;SDS011;25478;42.626;23.320;2023-01-29T03:36:56;7.27;;;4.17;;
39788;SDS011;25478;42.626;23.320;2023-01-29T03:39:26;7.93;;;4.43;;
39788;SDS011;25478;42.626;23.320;2023-01-29T03:44:48;9.47;;;4.87;;
39788;SDS011;25478;42.626;23.320;2023-01-29T03:47:47;9.87;;;5.67;;
39788;SDS011;25478;42.626;23.320;2023-01-29T03:58:19;8.47;;;4.53;;
39788;SDS011;25478;42.626;23.320;2023-01-29T04:00:51;7.27;;;4.37;;
39788;SDS011;25478;42.626;23.320;2023-01-29T04:03:32;8.80;;;3.83;;
39788;SDS011;25478;42.626;23.320;2023-01-29T04:11:35;7.60;;;4.20;;
39788;SDS011;25478;42.626;23.320;2023-01-29T04:14:06;6.87;;;4.00;;
39788;SDS011;25478;42.626;23.320;2023-01-29T04:16:39;5.10;;;3.47;;
39788;SDS011;25478;42.626;23.320;2023-01-29T04:19:21;6.63;;;3.50;;
39788;SDS011;25478;42.626;23.320;2023-01-29T04:21:48;7.07;;;3.63;;
39788;SDS011;25478;42.626;23.320;2023-01-29T04:24:17;6.23;;;3.77;;
39788;SDS011;25478;42.626;23.320;2023-01-29T04:26:54;7.20;;;3.70;;
39788;SDS011;25478;42.626;23.320;2023-01-29T04:35:12;8.20;;;4.60;;
39788;SDS011;25478;42.626;23.320;2023-01-29T04:38:05;8.43;;;4.90;;
39788;SDS011;25478;42.626;23.320;2023-01-29T04:59:29;6.37;;;4.30;;
39788;SDS011;25478;42.626;23.320;2023-01-29T05:01:58;7.73;;;4.33;;
39788;SDS011;25478;42.626;23.320;2023-01-29T05:04:26;7.57;;;3.97;;
39788;SDS011;25478;42.626;23.320;2023-01-29T05:06:56;6.03;;;3.90;;
39788;SDS011;25478;42.626;23.320;2023-01-29T05:09:26;8.13;;;4.53;;
39788;SDS011;25478;42.626;23.320;2023-01-29T05:11:52;6.67;;;4.47;;
39788;SDS011;25478;42.626;23.320;2023-01-29T05:14:18;8.37;;;5.07;;
39788;SDS011;25478;42.626;23.320;2023-01-29T05:16:46;8.63;;;4.73;;
39788;SDS011;25478;42.626;23.320;2023-01-29T05:19:17;7.33;;;4.17;;
39788;SDS011;25478;42.626;23.320;2023-01-29T05:21:43;7.57;;;4.50;;
39788;SDS011;25478;42.626;23.320;2023-01-29T05:24:19;7.07;;;4.40;;
39788;SDS011;25478;42.626;23.320;2023-01-29T05:26:49;7.40;;;4.33;;
39788;SDS011;25478;42.626;23.320;2023-01-29T05:29:35;7.23;;;4.33;;
39788;SDS011;25478;42.626;23.320;2023-01-29T05:32:01;9.10;;;5.03;;
39788;SDS011;25478;42.626;23.320;2023-01-29T05:34:28;10.07;;;5.67;;
39788;SDS011;25478;42.626;23.320;2023-01-29T05:36:54;9.93;;;5.13;;
39788;SDS011;25478;42.626;23.320;2023-01-29T05:39:19;8.97;;;5.13;;
39788;SDS011;25478;42.626;23.320;2023-01-29T05:41:45;9.70;;;5.43;;
39788;SDS011;25478;42.626;23.320;2023-01-29T05:44:11;9.10;;;5.30;;
39788;SDS011;25478;42.626;23.320;2023-01-29T05:46:36;8.70;;;4.90;;
39788;SDS011;25478;42.626;23.320;2023-01-29T05:49:02;8.07;;;4.87;;
39788;SDS011;25478;42.626;23.320;2023-01-29T05:51:28;7.70;;;4.87;;
39788;SDS011;25478;42.626;23.320;2023-01-29T05:53:53;8.33;;;5.03;;
39788;SDS011;25478;42.626;23.320;2023-01-29T05:56:19;9.43;;;5.83;;
39788;SDS011;25478;42.626;23.320;2023-01-29T05:58:44;8.40;;;5.50;;
39788;SDS011;25478;42.626;23.320;2023-01-29T06:01:17;10.40;;;5.60;;
39788;SDS011;25478;42.626;23.320;2023-01-29T06:03:45;10.00;;;5.63;;
39788;SDS011;25478;42.626;23.320;2023-01-29T06:06:11;9.13;;;5.27;;
39788;SDS011;25478;42.626;23.320;2023-01-29T06:08:37;8.77;;;5.30;;
39788;SDS011;25478;42.626;23.320;2023-01-29T06:11:02;10.77;;;6.00;;
39788;SDS011;25478;42.626;23.320;2023-01-29T06:13:28;9.50;;;5.87;;
39788;SDS011;25478;42.626;23.320;2023-01-29T06:15:54;9.30;;;5.70;;
39788;SDS011;25478;42.626;23.320;2023-01-29T06:18:19;11.00;;;6.23;;
39788;SDS011;25478;42.626;23.320;2023-01-29T06:20:45;14.43;;;7.27;;
39788;SDS011;25478;42.626;23.320;2023-01-29T06:23:10;14.37;;;7.40;;
39788;SDS011;25478;42.626;23.320;2023-01-29T06:25:36;12.37;;;6.60;;
39788;SDS011;25478;42.626;23.320;2023-01-29T06:28:02;10.50;;;6.23;;
39788;SDS011;25478;42.626;23.320;2023-01-29T06:30:27;11.23;;;5.97;;
39788;SDS011;25478;42.626;23.320;2023-01-29T06:32:56;10.60;;;6.13;;
39788;SDS011;25478;42.626;23.320;2023-01-29T06:35:23;11.33;;;6.80;;
39788;SDS011;25478;42.626;23.320;2023-01-29T06:37:49;13.30;;;7.63;;
39788;SDS011;25478;42.626;23.320;2023-01-29T06:40:15;13.03;;;6.90;;
39788;SDS011;25478;42.626;23.320;2023-01-29T06:42:40;12.73;;;6.23;;
39788;SDS011;25478;42.626;23.320;2023-01-29T06:45:06;9.97;;;6.57;;
39788;SDS011;25478;42.626;23.320;2023-01-29T06:47:32;10.73;;;6.70;;
39788;SDS011;25478;42.626;23.320;2023-01-29T06:49:57;13.10;;;7.10;;
39788;SDS011;25478;42.626;23.320;2023-01-29T06:52:23;13.83;;;7.63;;
39788;SDS011;25478;42.626;23.320;2023-01-29T06:54:52;14.10;;;7.17;;
39788;SDS011;25478;42.626;23.320;2023-01-29T06:57:18;12.40;;;7.47;;
39788;SDS011;25478;42.626;23.320;2023-01-29T06:59:44;34.93;;;18.00;;
39788;SDS011;25478;42.626;23.320;2023-01-29T07:02:09;17.93;;;9.93;;
39788;SDS011;25478;42.626;23.320;2023-01-29T07:04:35;12.17;;;6.80;;
39788;SDS011;25478;42.626;23.320;2023-01-29T07:07:02;10.50;;;6.17;;
39788;SDS011;25478;42.626;23.320;2023-01-29T07:09:27;10.57;;;6.33;;
39788;SDS011;25478;42.626;23.320;2023-01-29T07:11:53;10.10;;;5.97;;
39788;SDS011;25478;42.626;23.320;2023-01-29T07:14:18;9.90;;;6.27;;
39788;SDS011;25478;42.626;23.320;2023-01-29T07:16:44;11.30;;;6.43;;
39788;SDS011;25478;42.626;23.320;2023-01-29T07:19:09;12.17;;;6.60;;
39788;SDS011;25478;42.626;23.320;2023-01-29T07:21:35;11.80;;;6.83;;
39788;SDS011;25478;42.626;23.320;2023-01-29T07:24:01;11.87;;;6.43;;
39788;SDS011;25478;42.626;23.320;2023-01-29T07:26:27;14.27;;;7.67;;
39788;SDS011;25478;42.626;23.320;2023-01-29T07:28:53;19.33;;;9.27;;
39788;SDS011;25478;42.626;23.320;2023-01-29T07:31:18;21.30;;;9.87;;
39788;SDS011;25478;42.626;23.320;2023-01-29T07:33:44;17.00;;;9.53;;
39788;SDS011;25478;42.626;23.320;2023-01-29T07:36:10;13.70;;;7.57;;
39788;SDS011;25478;42.626;23.320;2023-01-29T07:38:36;15.67;;;8.30;;
39788;SDS011;25478;42.626;23.320;2023-01-29T07:41:01;13.07;;;7.83;;
39788;SDS011;25478;42.626;23.320;2023-01-29T07:43:27;14.47;;;7.77;;
39788;SDS011;25478;42.626;23.320;2023-01-29T07:45:52;17.10;;;9.13;;
39788;SDS011;25478;42.626;23.320;2023-01-29T07:48:18;16.80;;;9.03;;
39788;SDS011;25478;42.626;23.320;2023-01-29T07:50:44;14.97;;;9.17;;
39788;SDS011;25478;42.626;23.320;2023-01-29T07:53:13;15.43;;;8.47;;
39788;SDS011;25478;42.626;23.320;2023-01-29T07:55:39;15.33;;;8.73;;
39788;SDS011;25478;42.626;23.320;2023-01-29T07:58:04;15.73;;;8.60;;
39788;SDS011;25478;42.626;23.320;2023-01-29T08:00:30;13.70;;;8.20;;
39788;SDS011;25478;42.626;23.320;2023-01-29T08:03:08;14.33;;;7.90;;
39788;SDS011;25478;42.626;23.320;2023-01-29T08:05:36;14.10;;;8.23;;
39788;SDS011;25478;42.626;23.320;2023-01-29T08:08:01;14.70;;;9.27;;
39788;SDS011;25478;42.626;23.320;2023-01-29T08:10:28;18.17;;;9.93;;
39788;SDS011;25478;42.626;23.320;2023-01-29T08:12:54;17.20;;;9.47;;
39788;SDS011;25478;42.626;23.320;2023-01-29T08:15:24;16.03;;;9.03;;
39788;SDS011;25478;42.626;23.320;2023-01-29T08:17:50;16.63;;;10.13;;
39788;SDS011;25478;42.626;23.320;2023-01-29T08:20:17;15.67;;;8.90;;
39788;SDS011;25478;42.626;23.320;2023-01-29T08:22:43;15.23;;;9.17;;
39788;SDS011;25478;42.626;23.320;2023-01-29T08:25:09;15.80;;;9.23;;
39788;SDS011;25478;42.626;23.320;2023-01-29T08:27:35;16.20;;;10.17;;
39788;SDS011;25478;42.626;23.320;2023-01-29T08:30:00;17.30;;;9.63;;
39788;SDS011;25478;42.626;23.320;2023-01-29T08:32:26;15.57;;;8.83;;
39788;SDS011;25478;42.626;23.320;2023-01-29T08:34:51;15.73;;;9.47;;
39788;SDS011;25478;42.626;23.320;2023-01-29T08:37:17;17.60;;;9.43;;
39788;SDS011;25478;42.626;23.320;2023-01-29T08:39:42;18.53;;;10.47;;
39788;SDS011;25478;42.626;23.320;2023-01-29T08:42:08;19.37;;;10.37;;
39788;SDS011;25478;42.626;23.320;2023-01-29T08:44:34;19.53;;;10.90;;
39788;SDS011;25478;42.626;23.320;2023-01-29T08:46:59;18.37;;;10.00;;
39788;SDS011;25478;42.626;23.320;2023-01-29T08:49:25;18.13;;;10.33;;
39788;SDS011;25478;42.626;23.320;2023-01-29T08:51:51;17.37;;;10.07;;
39788;SDS011;25478;42.626;23.320;2023-01-29T08:54:17;18.77;;;10.10;;
39788;SDS011;25478;42.626;23.320;2023-01-29T08:56:43;21.30;;;11.03;;
39788;SDS011;25478;42.626;23.320;2023-01-29T08:59:09;19.63;;;10.47;;
39788;SDS011;25478;42.626;23.320;2023-01-29T09:01:35;21.00;;;10.60;;
39788;SDS011;25478;42.626;23.320;2023-01-29T09:04:00;20.97;;;11.57;;
39788;SDS011;25478;42.626;23.320;2023-01-29T09:06:26;23.70;;;11.10;;
39788;SDS011;25478;42.626;23.320;2023-01-29T09:08:51;24.93;;;11.40;;
39788;SDS011;25478;42.626;23.320;2023-01-29T09:11:17;33.07;;;17.67;;
39788;SDS011;25478;42.626;23.320;2023-01-29T09:13:42;27.10;;;14.33;;
39788;SDS011;25478;42.626;23.320;2023-01-29T09:16:08;25.73;;;13.27;;
39788;SDS011;25478;42.626;23.320;2023-01-29T09:18:34;26.27;;;13.83;;
39788;SDS011;25478;42.626;23.320;2023-01-29T09:21:00;26.53;;;13.47;;
39788;SDS011;25478;42.626;23.320;2023-01-29T09:23:27;25.33;;;13.60;;
39788;SDS011;25478;42.626;23.320;2023-01-29T09:25:53;24.17;;;12.57;;
39788;SDS011;25478;42.626;23.320;2023-01-29T09:28:19;22.47;;;12.07;;
39788;SDS011;25478;42.626;23.320;2023-01-29T09:30:44;22.10;;;11.80;;
39788;SDS011;25478;42.626;23.320;2023-01-29T09:33:10;22.13;;;12.10;;
39788;SDS011;25478;42.626;23.320;2023-01-29T09:35:36;25.27;;;13.67;;
39788;SDS011;25478;42.626;23.320;2023-01-29T09:38:01;27.70;;;13.90;;
39788;SDS011;25478;42.626;23.320;2023-01-29T09:40:47;26.30;;;13.60;;
39788;SDS011;25478;42.626;23.320;2023-01-29T09:46:09;21.73;;;12.60;;
39788;SDS011;25478;42.626;23.320;2023-01-29T09:48:48;19.23;;;10.93;;
39788;SDS011;25478;42.626;23.320;2023-01-29T09:51:26;22.17;;;12.23;;
39788;SDS011;25478;42.626;23.320;2023-01-29T09:56:48;21.70;;;12.97;;
39788;SDS011;25478;42.626;23.320;2023-01-29T09:59:17;22.77;;;12.87;;
39788;SDS011;25478;42.626;23.320;2023-01-29T10:25:40;24.40;;;12.77;;
39788;SDS011;25478;42.626;23.320;2023-01-29T10:28:49;27.87;;;13.33;;
39788;SDS011;25478;42.626;23.320;2023-01-29T10:31:06;37.27;;;19.67;;
39788;SDS011;25478;42.626;23.320;2023-01-29T10:33:40;44.23;;;22.87;;
39788;SDS011;25478;42.626;23.320;2023-01-29T10:36:10;40.27;;;20.70;;
39788;SDS011;25478;42.626;23.320;2023-01-29T10:38:43;40.43;;;20.10;;
39788;SDS011;25478;42.626;23.320;2023-01-29T10:52:33;29.50;;;14.87;;
39788;SDS011;25478;42.626;23.320;2023-01-29T10:55:10;31.85;;;15.60;;
39788;SDS011;25478;42.626;23.320;2023-01-29T10:58:00;27.03;;;14.53;;
39788;SDS011;25478;42.626;23.320;2023-01-29T11:00:38;32.37;;;16.43;;
39788;SDS011;25478;42.626;23.320;2023-01-29T11:05:43;33.17;;;14.97;;
39788;SDS011;25478;42.626;23.320;2023-01-29T11:08:17;31.57;;;15.60;;
39788;SDS011;25478;42.626;23.320;2023-01-29T11:10:48;30.80;;;16.23;;
39788;SDS011;25478;42.626;23.320;2023-01-29T11:13:18;34.03;;;16.47;;
39788;SDS011;25478;42.626;23.320;2023-01-29T11:15:46;32.57;;;15.77;;
39788;SDS011;25478;42.626;23.320;2023-01-29T11:18:12;31.37;;;15.33;;
39788;SDS011;25478;42.626;23.320;2023-01-29T11:20:43;32.17;;;15.90;;
39788;SDS011;25478;42.626;23.320;2023-01-29T11:25:55;31.23;;;15.93;;
39788;SDS011;25478;42.626;23.320;2023-01-29T11:31:17;33.03;;;15.37;;
39788;SDS011;25478;42.626;23.320;2023-01-29T11:34:00;30.13;;;16.67;;
39788;SDS011;25478;42.626;23.320;2023-01-29T11:36:31;40.00;;;18.33;;
39788;SDS011;25478;42.626;23.320;2023-01-29T11:44:32;35.60;;;16.90;;
39788;SDS011;25478;42.626;23.320;2023-01-29T11:49:38;33.27;;;15.80;;
39788;SDS011;25478;42.626;23.320;2023-01-29T11:52:09;29.80;;;14.60;;
39788;SDS011;25478;42.626;23.320;2023-01-29T11:54:39;32.70;;;16.37;;
39788;SDS011;25478;42.626;23.320;2023-01-29T11:57:29;36.87;;;17.23;;
39788;SDS011;25478;42.626;23.320;2023-01-29T12:00:02;30.87;;;15.83;;
39788;SDS011;25478;42.626;23.320;2023-01-29T12:02:42;33.30;;;16.10;;
39788;SDS011;25478;42.626;23.320;2023-01-29T12:05:16;34.43;;;17.30;;
39788;SDS011;25478;42.626;23.320;2023-01-29T12:08:02;33.23;;;17.03;;
39788;SDS011;25478;42.626;23.320;2023-01-29T12:13:02;36.37;;;17.73;;
39788;SDS011;25478;42.626;23.320;2023-01-29T12:15:48;38.40;;;19.30;;
39788;SDS011;25478;42.626;23.320;2023-01-29T12:21:04;27.83;;;15.50;;
39788;SDS011;25478;42.626;23.320;2023-01-29T12:34:41;30.97;;;15.87;;
39788;SDS011;25478;42.626;23.320;2023-01-29T12:37:15;30.80;;;16.00;;
39788;SDS011;25478;42.626;23.320;2023-01-29T12:39:47;26.33;;;14.87;;
39788;SDS011;25478;42.626;23.320;2023-01-29T12:44:45;31.83;;;16.43;;
39788;SDS011;25478;42.626;23.320;2023-01-29T12:50:06;34.63;;;16.33;;
39788;SDS011;25478;42.626;23.320;2023-01-29T12:52:43;33.53;;;17.33;;
39788;SDS011;25478;42.626;23.320;2023-01-29T12:55:23;29.93;;;15.27;;
39788;SDS011;25478;42.626;23.320;2023-01-29T13:00:23;29.73;;;15.83;;
39788;SDS011;25478;42.626;23.320;2023-01-29T13:08:22;32.30;;;16.47;;
39788;SDS011;25478;42.626;23.320;2023-01-29T13:10:52;31.43;;;15.60;;
39788;SDS011;25478;42.626;23.320;2023-01-29T13:16:18;30.80;;;16.83;;
39788;SDS011;25478;42.626;23.320;2023-01-29T13:18:49;34.67;;;17.50;;
39788;SDS011;25478;42.626;23.320;2023-01-29T13:21:20;35.00;;;17.43;;
39788;SDS011;25478;42.626;23.320;2023-01-29T13:23:49;31.40;;;16.50;;
39788;SDS011;25478;42.626;23.320;2023-01-29T13:26:20;34.60;;;17.33;;
39788;SDS011;25478;42.626;23.320;2023-01-29T13:28:47;27.60;;;16.03;;
39788;SDS011;25478;42.626;23.320;2023-01-29T13:31:31;29.30;;;16.13;;
39788;SDS011;25478;42.626;23.320;2023-01-29T13:36:32;33.03;;;16.67;;
39788;SDS011;25478;42.626;23.320;2023-01-29T13:39:07;34.47;;;17.57;;
39788;SDS011;25478;42.626;23.320;2023-01-29T13:41:48;33.63;;;16.53;;
39788;SDS011;25478;42.626;23.320;2023-01-29T13:46:53;30.90;;;15.20;;
39788;SDS011;25478;42.626;23.320;2023-01-29T13:49:27;30.33;;;14.77;;
39788;SDS011;25478;42.626;23.320;2023-01-29T13:51:53;34.53;;;17.40;;
39788;SDS011;25478;42.626;23.320;2023-01-29T13:54:20;34.20;;;17.43;;
39788;SDS011;25478;42.626;23.320;2023-01-29T13:56:56;35.80;;;18.07;;
39788;SDS011;25478;42.626;23.320;2023-01-29T13:59:24;37.60;;;18.92;;
39788;SDS011;25478;42.626;23.320;2023-01-29T14:04:45;33.83;;;16.97;;
39788;SDS011;25478;42.626;23.320;2023-01-29T14:10:18;34.80;;;17.43;;
39788;SDS011;25478;42.626;23.320;2023-01-29T14:12:47;32.40;;;17.33;;
39788;SDS011;25478;42.626;23.320;2023-01-29T14:15:25;36.23;;;18.23;;
39788;SDS011;25478;42.626;23.320;2023-01-29T14:17:53;39.77;;;19.50;;
39788;SDS011;25478;42.626;23.320;2023-01-29T14:20:50;37.83;;;18.73;;
39788;SDS011;25478;42.626;23.320;2023-01-29T14:25:55;40.80;;;19.70;;
39788;SDS011;25478;42.626;23.320;2023-01-29T14:28:23;37.70;;;18.27;;
39788;SDS011;25478;42.626;23.320;2023-01-29T14:30:52;39.80;;;18.47;;
39788;SDS011;25478;42.626;23.320;2023-01-29T14:33:26;39.90;;;19.17;;
39788;SDS011;25478;42.626;23.320;2023-01-29T14:35:57;41.70;;;20.37;;
39788;SDS011;25478;42.626;23.320;2023-01-29T14:38:28;38.97;;;19.33;;
39788;SDS011;25478;42.626;23.320;2023-01-29T14:41:01;35.80;;;18.20;;
39788;SDS011;25478;42.626;23.320;2023-01-29T14:43:33;42.23;;;20.57;;
39788;SDS011;25478;42.626;23.320;2023-01-29T14:48:58;44.50;;;21.43;;
39788;SDS011;25478;42.626;23.320;2023-01-29T14:51:24;45.77;;;22.13;;
39788;SDS011;25478;42.626;23.320;2023-01-29T14:54:01;47.03;;;21.17;;
39788;SDS011;25478;42.626;23.320;2023-01-29T14:56:39;46.07;;;21.80;;
39788;SDS011;25478;42.626;23.320;2023-01-29T14:59:12;44.83;;;22.17;;
39788;SDS011;25478;42.626;23.320;2023-01-29T15:01:54;49.77;;;23.50;;
39788;SDS011;25478;42.626;23.320;2023-01-29T15:04:29;38.27;;;19.97;;
39788;SDS011;25478;42.626;23.320;2023-01-29T15:07:04;36.93;;;19.20;;
39788;SDS011;25478;42.626;23.320;2023-01-29T15:10:20;48.60;;;23.37;;
39788;SDS011;25478;42.626;23.320;2023-01-29T15:15:30;48.93;;;23.10;;
39788;SDS011;25478;42.626;23.320;2023-01-29T15:18:06;54.33;;;23.53;;
39788;SDS011;25478;42.626;23.320;2023-01-29T15:20:38;39.50;;;21.00;;
39788;SDS011;25478;42.626;23.320;2023-01-29T15:25:54;37.23;;;18.43;;
39788;SDS011;25478;42.626;23.320;2023-01-29T15:28:23;32.60;;;17.50;;
39788;SDS011;25478;42.626;23.320;2023-01-29T15:30:53;37.73;;;18.50;;
39788;SDS011;25478;42.626;23.320;2023-01-29T15:33:20;37.83;;;18.47;;
39788;SDS011;25478;42.626;23.320;2023-01-29T15:35:46;36.63;;;17.50;;
39788;SDS011;25478;42.626;23.320;2023-01-29T15:38:15;36.03;;;18.10;;
39788;SDS011;25478;42.626;23.320;2023-01-29T15:40:51;33.03;;;18.13;;
39788;SDS011;25478;42.626;23.320;2023-01-29T15:43:28;37.23;;;17.87;;
39788;SDS011;25478;42.626;23.320;2023-01-29T15:48:52;37.20;;;19.93;;
39788;SDS011;25478;42.626;23.320;2023-01-29T15:51:21;40.27;;;19.67;;
39788;SDS011;25478;42.626;23.320;2023-01-29T15:53:50;37.40;;;20.17;;
39788;SDS011;25478;42.626;23.320;2023-01-29T15:56:35;38.60;;;18.63;;
39788;SDS011;25478;42.626;23.320;2023-01-29T15:59:04;41.67;;;20.50;;
39788;SDS011;25478;42.626;23.320;2023-01-29T16:01:32;39.30;;;19.93;;
39788;SDS011;25478;42.626;23.320;2023-01-29T16:03:57;39.27;;;20.00;;
39788;SDS011;25478;42.626;23.320;2023-01-29T16:06:33;42.53;;;20.17;;
39788;SDS011;25478;42.626;23.320;2023-01-29T16:09:02;46.60;;;21.30;;
39788;SDS011;25478;42.626;23.320;2023-01-29T16:11:29;39.77;;;20.23;;
39788;SDS011;25478;42.626;23.320;2023-01-29T16:13:56;42.50;;;22.07;;
39788;SDS011;25478;42.626;23.320;2023-01-29T16:16:23;44.40;;;20.83;;
39788;SDS011;25478;42.626;23.320;2023-01-29T16:18:50;44.33;;;22.57;;
39788;SDS011;25478;42.626;23.320;2023-01-29T16:21:22;42.57;;;21.40;;
39788;SDS011;25478;42.626;23.320;2023-01-29T16:24:11;47.03;;;22.17;;
39788;SDS011;25478;42.626;23.320;2023-01-29T16:29:16;45.30;;;22.20;;
39788;SDS011;25478;42.626;23.320;2023-01-29T16:31:46;43.43;;;20.87;;
39788;SDS011;25478;42.626;23.320;2023-01-29T16:34:20;40.83;;;21.07;;
39788;SDS011;25478;42.626;23.320;2023-01-29T16:36:50;46.10;;;22.70;;
39788;SDS011;25478;42.626;23.320;2023-01-29T16:39:19;45.83;;;22.53;;
39788;SDS011;25478;42.626;23.320;2023-01-29T16:44:45;53.57;;;24.37;;
39788;SDS011;25478;42.626;23.320;2023-01-29T16:47:47;52.33;;;24.13;;
39788;SDS011;25478;42.626;23.320;2023-01-29T16:53:01;52.63;;;25.23;;
39788;SDS011;25478;42.626;23.320;2023-01-29T16:55:38;62.00;;;30.20;;
39788;SDS011;25478;42.626;23.320;2023-01-29T16:58:17;54.70;;;29.17;;
39788;SDS011;25478;42.626;23.320;2023-01-29T17:00:46;60.03;;;29.67;;
39788;SDS011;25478;42.626;23.320;2023-01-29T17:03:14;58.47;;;32.40;;
39788;SDS011;25478;42.626;23.320;2023-01-29T17:05:42;54.13;;;27.27;;
39788;SDS011;25478;42.626;23.320;2023-01-29T17:08:16;55.80;;;29.40;;
39788;SDS011;25478;42.626;23.320;2023-01-29T17:10:45;56.63;;;27.60;;
39788;SDS011;25478;42.626;23.320;2023-01-29T17:13:16;59.83;;;27.67;;
39788;SDS011;25478;42.626;23.320;2023-01-29T17:15:48;68.23;;;34.50;;
39788;SDS011;25478;42.626;23.320;2023-01-29T17:18:18;59.77;;;29.27;;
39788;SDS011;25478;42.626;23.320;2023-01-29T17:20:45;62.00;;;30.03;;
39788;SDS011;25478;42.626;23.320;2023-01-29T17:23:11;54.07;;;25.50;;
39788;SDS011;25478;42.626;23.320;2023-01-29T17:25:37;45.83;;;22.13;;
39788;SDS011;25478;42.626;23.320;2023-01-29T17:28:03;50.27;;;24.57;;
39788;SDS011;25478;42.626;23.320;2023-01-29T17:30:32;51.07;;;25.50;;
39788;SDS011;25478;42.626;23.320;2023-01-29T17:33:07;48.50;;;25.70;;
39788;SDS011;25478;42.626;23.320;2023-01-29T17:35:38;54.37;;;24.37;;
39788;SDS011;25478;42.626;23.320;2023-01-29T17:38:07;38.73;;;19.20;;
39788;SDS011;25478;42.626;23.320;2023-01-29T17:40:39;33.20;;;18.27;;
39788;SDS011;25478;42.626;23.320;2023-01-29T17:43:06;37.03;;;16.90;;
39788;SDS011;25478;42.626;23.320;2023-01-29T17:45:35;37.70;;;16.97;;
39788;SDS011;25478;42.626;23.320;2023-01-29T17:48:01;31.03;;;15.93;;